sensor_id;sensor_type;location;lat;lon;timestamp;P1;durP1;ratioP1;P2;durP2;ratioP2
70420;SDS011;57848;51.938;15.520;2023-04-24T00:00:32;18.10;;;9.47;;
70420;SDS011;57848;51.938;15.520;2023-04-24T00:02:57;17.03;;;8.77;;
70420;SDS011;57848;51.938;15.520;2023-04-24T00:05:23;21.60;;;9.87;;
70420;SDS011;57848;51.938;15.520;2023-04-24T00:07:49;19.45;;;10.27;;
70420;SDS011;57848;51.938;15.520;2023-04-24T00:10:18;21.20;;;9.57;;
70420;SDS011;57848;51.938;15.520;2023-04-24T00:12:43;25.38;;;10.27;;
70420;SDS011;57848;51.938;15.520;2023-04-24T00:15:09;25.17;;;10.67;;
70420;SDS011;57848;51.938;15.520;2023-04-24T00:17:35;19.65;;;10.55;;
70420;SDS011;57848;51.938;15.520;2023-04-24T00:20:00;27.00;;;10.93;;
70420;SDS011;57848;51.938;15.520;2023-04-24T00:22:29;20.00;;;9.52;;
70420;SDS011;57848;51.938;15.520;2023-04-24T00:24:55;22.70;;;9.80;;
70420;SDS011;57848;51.938;15.520;2023-04-24T00:27:20;22.95;;;9.40;;
70420;SDS011;57848;51.938;15.520;2023-04-24T00:29:46;23.10;;;9.60;;
70420;SDS011;57848;51.938;15.520;2023-04-24T00:32:12;20.60;;;9.02;;
70420;SDS011;57848;51.938;15.520;2023-04-24T00:34:38;23.53;;;10.17;;
70420;SDS011;57848;51.938;15.520;2023-04-24T00:37:03;20.40;;;8.27;;
70420;SDS011;57848;51.938;15.520;2023-04-24T00:39:28;15.10;;;7.50;;
70420;SDS011;57848;51.938;15.520;2023-04-24T00:41:54;18.03;;;7.83;;
70420;SDS011;57848;51.938;15.520;2023-04-24T00:44:20;19.88;;;8.63;;
70420;SDS011;57848;51.938;15.520;2023-04-24T00:46:46;20.77;;;9.10;;
70420;SDS011;57848;51.938;15.520;2023-04-24T00:49:12;17.98;;;7.88;;
70420;SDS011;57848;51.938;15.520;2023-04-24T00:51:39;15.35;;;7.40;;
70420;SDS011;57848;51.938;15.520;2023-04-24T00:54:05;16.70;;;7.68;;
70420;SDS011;57848;51.938;15.520;2023-04-24T00:56:31;17.57;;;8.13;;
70420;SDS011;57848;51.938;15.520;2023-04-24T00:58:56;16.43;;;7.60;;
70420;SDS011;57848;51.938;15.520;2023-04-24T01:01:22;17.73;;;8.00;;
70420;SDS011;57848;51.938;15.520;2023-04-24T01:03:49;18.25;;;8.30;;
70420;SDS011;57848;51.938;15.520;2023-04-24T01:06:16;23.03;;;10.00;;
70420;SDS011;57848;51.938;15.520;2023-04-24T01:08:43;21.90;;;11.02;;
70420;SDS011;57848;51.938;15.520;2023-04-24T01:11:10;23.02;;;10.75;;
70420;SDS011;57848;51.938;15.520;2023-04-24T01:13:35;24.90;;;10.63;;
70420;SDS011;57848;51.938;15.520;2023-04-24T01:16:01;18.45;;;9.60;;
70420;SDS011;57848;51.938;15.520;2023-04-24T01:18:27;21.10;;;10.30;;
70420;SDS011;57848;51.938;15.520;2023-04-24T01:20:53;22.02;;;10.32;;
70420;SDS011;57848;51.938;15.520;2023-04-24T01:23:23;18.40;;;9.98;;
70420;SDS011;57848;51.938;15.520;2023-04-24T01:25:50;17.15;;;9.63;;
70420;SDS011;57848;51.938;15.520;2023-04-24T01:28:17;16.57;;;8.37;;
70420;SDS011;57848;51.938;15.520;2023-04-24T01:30:43;20.65;;;9.40;;
70420;SDS011;57848;51.938;15.520;2023-04-24T01:33:08;16.83;;;8.57;;
70420;SDS011;57848;51.938;15.520;2023-04-24T01:35:35;20.27;;;9.60;;
70420;SDS011;57848;51.938;15.520;2023-04-24T01:38:02;16.40;;;8.48;;
70420;SDS011;57848;51.938;15.520;2023-04-24T01:40:28;18.27;;;8.32;;
70420;SDS011;57848;51.938;15.520;2023-04-24T01:42:55;17.25;;;8.60;;
70420;SDS011;57848;51.938;15.520;2023-04-24T01:45:22;15.93;;;8.53;;
70420;SDS011;57848;51.938;15.520;2023-04-24T01:47:47;13.70;;;8.03;;
70420;SDS011;57848;51.938;15.520;2023-04-24T01:50:16;16.95;;;8.05;;
70420;SDS011;57848;51.938;15.520;2023-04-24T01:52:41;15.77;;;8.15;;
70420;SDS011;57848;51.938;15.520;2023-04-24T01:55:08;17.25;;;8.07;;
70420;SDS011;57848;51.938;15.520;2023-04-24T01:57:34;17.50;;;8.37;;
70420;SDS011;57848;51.938;15.520;2023-04-24T02:00:00;16.77;;;7.57;;
70420;SDS011;57848;51.938;15.520;2023-04-24T02:02:27;18.60;;;7.82;;
70420;SDS011;57848;51.938;15.520;2023-04-24T02:04:55;15.27;;;6.88;;
70420;SDS011;57848;51.938;15.520;2023-04-24T02:07:21;15.97;;;7.17;;
70420;SDS011;57848;51.938;15.520;2023-04-24T02:09:47;14.00;;;7.50;;
70420;SDS011;57848;51.938;15.520;2023-04-24T02:12:13;13.43;;;7.50;;
70420;SDS011;57848;51.938;15.520;2023-04-24T02:14:38;14.45;;;7.25;;
70420;SDS011;57848;51.938;15.520;2023-04-24T02:17:04;14.77;;;7.20;;
70420;SDS011;57848;51.938;15.520;2023-04-24T02:19:30;15.05;;;7.00;;
70420;SDS011;57848;51.938;15.520;2023-04-24T02:21:55;12.50;;;6.60;;
70420;SDS011;57848;51.938;15.520;2023-04-24T02:24:21;12.75;;;6.53;;
70420;SDS011;57848;51.938;15.520;2023-04-24T02:26:46;16.17;;;6.67;;
70420;SDS011;57848;51.938;15.520;2023-04-24T02:29:12;13.63;;;7.10;;
70420;SDS011;57848;51.938;15.520;2023-04-24T02:31:37;15.40;;;6.30;;
70420;SDS011;57848;51.938;15.520;2023-04-24T02:34:02;13.27;;;6.87;;
70420;SDS011;57848;51.938;15.520;2023-04-24T02:36:28;12.23;;;6.55;;
70420;SDS011;57848;51.938;15.520;2023-04-24T02:38:53;13.33;;;7.87;;
70420;SDS011;57848;51.938;15.520;2023-04-24T02:41:18;13.37;;;7.13;;
70420;SDS011;57848;51.938;15.520;2023-04-24T02:43:44;13.93;;;7.43;;
70420;SDS011;57848;51.938;15.520;2023-04-24T02:46:10;15.77;;;8.40;;
70420;SDS011;57848;51.938;15.520;2023-04-24T02:48:35;16.67;;;9.23;;
70420;SDS011;57848;51.938;15.520;2023-04-24T02:51:01;18.75;;;9.85;;
70420;SDS011;57848;51.938;15.520;2023-04-24T02:53:26;19.90;;;12.00;;
70420;SDS011;57848;51.938;15.520;2023-04-24T02:55:52;25.17;;;11.63;;
70420;SDS011;57848;51.938;15.520;2023-04-24T02:58:17;22.23;;;11.95;;
70420;SDS011;57848;51.938;15.520;2023-04-24T03:00:45;20.93;;;11.90;;
70420;SDS011;57848;51.938;15.520;2023-04-24T03:03:11;20.52;;;11.88;;
70420;SDS011;57848;51.938;15.520;2023-04-24T03:05:36;17.70;;;10.23;;
70420;SDS011;57848;51.938;15.520;2023-04-24T03:08:02;19.13;;;10.32;;
70420;SDS011;57848;51.938;15.520;2023-04-24T03:10:27;18.27;;;9.80;;
70420;SDS011;57848;51.938;15.520;2023-04-24T03:12:52;16.20;;;9.27;;
70420;SDS011;57848;51.938;15.520;2023-04-24T03:15:19;19.25;;;11.15;;
70420;SDS011;57848;51.938;15.520;2023-04-24T03:17:45;18.60;;;10.20;;
70420;SDS011;57848;51.938;15.520;2023-04-24T03:20:10;18.90;;;11.03;;
70420;SDS011;57848;51.938;15.520;2023-04-24T03:22:36;15.52;;;8.60;;
70420;SDS011;57848;51.938;15.520;2023-04-24T03:25:05;19.05;;;9.25;;
70420;SDS011;57848;51.938;15.520;2023-04-24T03:27:31;17.40;;;9.60;;
70420;SDS011;57848;51.938;15.520;2023-04-24T03:30:00;14.73;;;8.30;;
70420;SDS011;57848;51.938;15.520;2023-04-24T03:32:35;13.90;;;8.10;;
70420;SDS011;57848;51.938;15.520;2023-04-24T03:35:01;20.02;;;9.05;;
70420;SDS011;57848;51.938;15.520;2023-04-24T03:37:26;17.00;;;8.33;;
70420;SDS011;57848;51.938;15.520;2023-04-24T03:40:02;18.23;;;9.23;;
70420;SDS011;57848;51.938;15.520;2023-04-24T03:42:28;15.53;;;9.43;;
70420;SDS011;57848;51.938;15.520;2023-04-24T03:44:55;16.95;;;9.35;;
70420;SDS011;57848;51.938;15.520;2023-04-24T03:47:23;16.00;;;9.05;;
70420;SDS011;57848;51.938;15.520;2023-04-24T03:49:50;18.63;;;10.00;;
70420;SDS011;57848;51.938;15.520;2023-04-24T03:52:16;15.53;;;9.50;;
70420;SDS011;57848;51.938;15.520;2023-04-24T03:54:42;17.23;;;8.90;;
70420;SDS011;57848;51.938;15.520;2023-04-24T03:57:08;15.70;;;9.00;;
70420;SDS011;57848;51.938;15.520;2023-04-24T03:59:35;16.50;;;8.60;;
70420;SDS011;57848;51.938;15.520;2023-04-24T04:02:15;17.92;;;9.23;;
70420;SDS011;57848;51.938;15.520;2023-04-24T04:04:40;17.87;;;9.83;;
70420;SDS011;57848;51.938;15.520;2023-04-24T04:07:06;16.40;;;8.53;;
70420;SDS011;57848;51.938;15.520;2023-04-24T04:09:32;17.17;;;8.93;;
70420;SDS011;57848;51.938;15.520;2023-04-24T04:11:58;14.95;;;8.85;;
70420;SDS011;57848;51.938;15.520;2023-04-24T04:14:23;15.90;;;8.40;;
70420;SDS011;57848;51.938;15.520;2023-04-24T04:16:49;17.23;;;8.57;;
70420;SDS011;57848;51.938;15.520;2023-04-24T04:19:14;15.52;;;8.88;;
70420;SDS011;57848;51.938;15.520;2023-04-24T04:21:40;17.27;;;8.50;;
70420;SDS011;57848;51.938;15.520;2023-04-24T04:24:13;16.10;;;8.15;;
70420;SDS011;57848;51.938;15.520;2023-04-24T04:26:42;20.08;;;9.95;;
70420;SDS011;57848;51.938;15.520;2023-04-24T04:29:12;16.15;;;8.85;;
70420;SDS011;57848;51.938;15.520;2023-04-24T04:31:41;15.43;;;9.53;;
70420;SDS011;57848;51.938;15.520;2023-04-24T04:34:10;16.65;;;9.20;;
70420;SDS011;57848;51.938;15.520;2023-04-24T04:36:37;18.60;;;9.02;;
70420;SDS011;57848;51.938;15.520;2023-04-24T04:39:38;17.48;;;8.98;;
70420;SDS011;57848;51.938;15.520;2023-04-24T04:42:10;18.20;;;9.55;;
70420;SDS011;57848;51.938;15.520;2023-04-24T04:44:39;17.43;;;9.13;;
70420;SDS011;57848;51.938;15.520;2023-04-24T04:47:06;17.95;;;9.35;;
70420;SDS011;57848;51.938;15.520;2023-04-24T04:49:36;18.35;;;8.85;;
70420;SDS011;57848;51.938;15.520;2023-04-24T04:52:05;19.17;;;9.38;;
70420;SDS011;57848;51.938;15.520;2023-04-24T04:54:30;16.33;;;8.90;;
70420;SDS011;57848;51.938;15.520;2023-04-24T04:56:56;16.33;;;9.25;;
70420;SDS011;57848;51.938;15.520;2023-04-24T04:59:22;17.40;;;8.83;;
70420;SDS011;57848;51.938;15.520;2023-04-24T05:01:52;20.40;;;10.27;;
70420;SDS011;57848;51.938;15.520;2023-04-24T05:04:17;15.20;;;8.37;;
70420;SDS011;57848;51.938;15.520;2023-04-24T05:06:43;14.25;;;7.90;;
70420;SDS011;57848;51.938;15.520;2023-04-24T05:09:08;17.67;;;9.03;;
70420;SDS011;57848;51.938;15.520;2023-04-24T05:11:44;15.20;;;8.70;;
70420;SDS011;57848;51.938;15.520;2023-04-24T05:14:10;14.97;;;7.20;;
70420;SDS011;57848;51.938;15.520;2023-04-24T05:16:37;15.45;;;8.70;;
70420;SDS011;57848;51.938;15.520;2023-04-24T05:19:04;13.07;;;6.65;;
70420;SDS011;57848;51.938;15.520;2023-04-24T05:21:34;13.02;;;7.03;;
70420;SDS011;57848;51.938;15.520;2023-04-24T05:23:59;13.40;;;7.37;;
70420;SDS011;57848;51.938;15.520;2023-04-24T05:26:40;12.50;;;6.95;;
70420;SDS011;57848;51.938;15.520;2023-04-24T05:29:07;13.70;;;7.60;;
70420;SDS011;57848;51.938;15.520;2023-04-24T05:31:33;12.93;;;6.40;;
70420;SDS011;57848;51.938;15.520;2023-04-24T05:33:58;13.93;;;6.63;;
70420;SDS011;57848;51.938;15.520;2023-04-24T05:36:23;12.27;;;5.90;;
70420;SDS011;57848;51.938;15.520;2023-04-24T05:38:49;14.00;;;6.97;;
70420;SDS011;57848;51.938;15.520;2023-04-24T05:41:14;12.90;;;6.03;;
70420;SDS011;57848;51.938;15.520;2023-04-24T05:43:40;12.48;;;6.28;;
70420;SDS011;57848;51.938;15.520;2023-04-24T05:46:06;12.30;;;6.20;;
70420;SDS011;57848;51.938;15.520;2023-04-24T05:48:31;12.07;;;6.35;;
70420;SDS011;57848;51.938;15.520;2023-04-24T05:50:59;11.67;;;5.50;;
70420;SDS011;57848;51.938;15.520;2023-04-24T05:53:24;13.43;;;5.10;;
70420;SDS011;57848;51.938;15.520;2023-04-24T05:55:50;9.30;;;4.53;;
70420;SDS011;57848;51.938;15.520;2023-04-24T05:58:15;9.57;;;5.10;;
70420;SDS011;57848;51.938;15.520;2023-04-24T06:00:41;10.50;;;5.10;;
70420;SDS011;57848;51.938;15.520;2023-04-24T06:03:07;8.47;;;3.90;;
70420;SDS011;57848;51.938;15.520;2023-04-24T06:05:33;10.18;;;3.88;;
70420;SDS011;57848;51.938;15.520;2023-04-24T06:08:01;9.70;;;3.67;;
70420;SDS011;57848;51.938;15.520;2023-04-24T06:10:31;9.53;;;3.90;;
70420;SDS011;57848;51.938;15.520;2023-04-24T06:12:57;9.23;;;3.20;;
70420;SDS011;57848;51.938;15.520;2023-04-24T06:15:27;9.77;;;3.83;;
70420;SDS011;57848;51.938;15.520;2023-04-24T06:17:59;7.60;;;3.40;;
70420;SDS011;57848;51.938;15.520;2023-04-24T06:20:25;8.65;;;3.40;;
70420;SDS011;57848;51.938;15.520;2023-04-24T06:22:50;24.35;;;11.15;;
70420;SDS011;57848;51.938;15.520;2023-04-24T06:25:16;13.00;;;5.63;;
70420;SDS011;57848;51.938;15.520;2023-04-24T06:27:42;7.80;;;3.40;;
70420;SDS011;57848;51.938;15.520;2023-04-24T06:30:07;7.63;;;3.13;;
70420;SDS011;57848;51.938;15.520;2023-04-24T06:32:35;7.23;;;3.30;;
70420;SDS011;57848;51.938;15.520;2023-04-24T06:35:00;9.45;;;3.83;;
70420;SDS011;57848;51.938;15.520;2023-04-24T06:37:26;8.45;;;3.90;;
70420;SDS011;57848;51.938;15.520;2023-04-24T06:39:51;7.43;;;3.60;;
70420;SDS011;57848;51.938;15.520;2023-04-24T06:42:17;10.07;;;4.00;;
70420;SDS011;57848;51.938;15.520;2023-04-24T06:44:43;8.20;;;4.07;;
70420;SDS011;57848;51.938;15.520;2023-04-24T06:47:09;9.32;;;3.08;;
70420;SDS011;57848;51.938;15.520;2023-04-24T06:49:36;10.00;;;3.20;;
70420;SDS011;57848;51.938;15.520;2023-04-24T06:52:01;7.80;;;2.93;;
70420;SDS011;57848;51.938;15.520;2023-04-24T06:54:27;7.25;;;3.17;;
70420;SDS011;57848;51.938;15.520;2023-04-24T06:56:52;9.73;;;2.60;;
70420;SDS011;57848;51.938;15.520;2023-04-24T06:59:17;8.37;;;2.90;;
70420;SDS011;57848;51.938;15.520;2023-04-24T07:01:43;8.47;;;3.23;;
70420;SDS011;57848;51.938;15.520;2023-04-24T07:04:08;8.27;;;2.80;;
70420;SDS011;57848;51.938;15.520;2023-04-24T07:06:34;6.47;;;2.70;;
70420;SDS011;57848;51.938;15.520;2023-04-24T07:09:00;7.72;;;2.38;;
70420;SDS011;57848;51.938;15.520;2023-04-24T07:11:26;8.73;;;3.20;;
70420;SDS011;57848;51.938;15.520;2023-04-24T07:13:54;6.78;;;2.47;;
70420;SDS011;57848;51.938;15.520;2023-04-24T07:16:19;17.17;;;6.27;;
70420;SDS011;57848;51.938;15.520;2023-04-24T07:18:45;7.07;;;2.80;;
70420;SDS011;57848;51.938;15.520;2023-04-24T07:21:10;8.25;;;2.33;;
70420;SDS011;57848;51.938;15.520;2023-04-24T07:23:36;8.97;;;3.47;;
70420;SDS011;57848;51.938;15.520;2023-04-24T07:26:02;7.65;;;3.13;;
70420;SDS011;57848;51.938;15.520;2023-04-24T07:28:27;8.97;;;2.20;;
70420;SDS011;57848;51.938;15.520;2023-04-24T07:30:56;6.90;;;2.33;;
70420;SDS011;57848;51.938;15.520;2023-04-24T07:33:22;7.75;;;2.10;;
70420;SDS011;57848;51.938;15.520;2023-04-24T07:35:47;6.97;;;2.30;;
70420;SDS011;57848;51.938;15.520;2023-04-24T07:38:13;8.60;;;2.10;;
70420;SDS011;57848;51.938;15.520;2023-04-24T07:40:38;7.00;;;1.90;;
70420;SDS011;57848;51.938;15.520;2023-04-24T07:43:03;7.50;;;1.67;;
70420;SDS011;57848;51.938;15.520;2023-04-24T07:45:29;5.67;;;2.00;;
70420;SDS011;57848;51.938;15.520;2023-04-24T07:47:54;7.27;;;2.10;;
70420;SDS011;57848;51.938;15.520;2023-04-24T07:50:19;7.47;;;2.13;;
70420;SDS011;57848;51.938;15.520;2023-04-24T07:52:45;7.57;;;2.08;;
70420;SDS011;57848;51.938;15.520;2023-04-24T07:55:11;6.63;;;1.60;;
70420;SDS011;57848;51.938;15.520;2023-04-24T07:57:36;5.17;;;2.00;;
70420;SDS011;57848;51.938;15.520;2023-04-24T08:00:02;5.40;;;1.90;;
70420;SDS011;57848;51.938;15.520;2023-04-24T08:02:36;6.07;;;1.70;;
70420;SDS011;57848;51.938;15.520;2023-04-24T08:05:02;5.83;;;1.70;;
70420;SDS011;57848;51.938;15.520;2023-04-24T08:07:28;5.57;;;1.77;;
70420;SDS011;57848;51.938;15.520;2023-04-24T08:09:54;4.90;;;1.70;;
70420;SDS011;57848;51.938;15.520;2023-04-24T08:12:19;8.43;;;1.50;;
70420;SDS011;57848;51.938;15.520;2023-04-24T08:14:44;6.27;;;2.03;;
70420;SDS011;57848;51.938;15.520;2023-04-24T08:17:10;4.50;;;1.70;;
70420;SDS011;57848;51.938;15.520;2023-04-24T08:19:35;5.20;;;1.70;;
70420;SDS011;57848;51.938;15.520;2023-04-24T08:22:01;5.13;;;1.60;;
70420;SDS011;57848;51.938;15.520;2023-04-24T08:24:26;6.15;;;1.60;;
70420;SDS011;57848;51.938;15.520;2023-04-24T08:26:52;5.43;;;1.37;;
70420;SDS011;57848;51.938;15.520;2023-04-24T08:29:19;6.03;;;1.88;;
70420;SDS011;57848;51.938;15.520;2023-04-24T08:31:44;6.13;;;1.80;;
70420;SDS011;57848;51.938;15.520;2023-04-24T08:34:09;6.20;;;2.00;;
70420;SDS011;57848;51.938;15.520;2023-04-24T08:36:35;6.57;;;2.13;;
70420;SDS011;57848;51.938;15.520;2023-04-24T08:39:01;6.43;;;1.80;;
70420;SDS011;57848;51.938;15.520;2023-04-24T08:41:27;5.83;;;1.90;;
70420;SDS011;57848;51.938;15.520;2023-04-24T08:43:52;5.68;;;1.80;;
70420;SDS011;57848;51.938;15.520;2023-04-24T08:46:18;5.10;;;1.40;;
70420;SDS011;57848;51.938;15.520;2023-04-24T08:48:45;4.60;;;1.50;;
70420;SDS011;57848;51.938;15.520;2023-04-24T08:51:10;7.47;;;1.83;;
70420;SDS011;57848;51.938;15.520;2023-04-24T08:53:36;5.90;;;1.40;;
70420;SDS011;57848;51.938;15.520;2023-04-24T08:56:23;5.05;;;1.30;;
70420;SDS011;57848;51.938;15.520;2023-04-24T08:59:32;5.50;;;1.20;;
70420;SDS011;57848;51.938;15.520;2023-04-24T09:01:59;6.28;;;1.52;;
70420;SDS011;57848;51.938;15.520;2023-04-24T09:04:25;7.13;;;1.50;;
70420;SDS011;57848;51.938;15.520;2023-04-24T09:06:51;5.90;;;1.80;;
70420;SDS011;57848;51.938;15.520;2023-04-24T09:09:20;4.93;;;1.48;;
70420;SDS011;57848;51.938;15.520;2023-04-24T09:11:48;5.38;;;1.30;;
70420;SDS011;57848;51.938;15.520;2023-04-24T09:14:15;6.33;;;1.47;;
70420;SDS011;57848;51.938;15.520;2023-04-24T09:16:41;5.07;;;1.52;;
70420;SDS011;57848;51.938;15.520;2023-04-24T09:19:07;5.60;;;1.70;;
70420;SDS011;57848;51.938;15.520;2023-04-24T09:21:33;6.10;;;1.50;;
70420;SDS011;57848;51.938;15.520;2023-04-24T09:24:03;5.25;;;1.40;;
70420;SDS011;57848;51.938;15.520;2023-04-24T09:26:31;5.83;;;1.33;;
70420;SDS011;57848;51.938;15.520;2023-04-24T09:28:58;5.40;;;1.40;;
70420;SDS011;57848;51.938;15.520;2023-04-24T09:31:23;6.05;;;1.30;;
70420;SDS011;57848;51.938;15.520;2023-04-24T09:34:02;5.60;;;1.52;;
70420;SDS011;57848;51.938;15.520;2023-04-24T09:36:34;6.15;;;1.52;;
70420;SDS011;57848;51.938;15.520;2023-04-24T09:39:04;6.67;;;1.23;;
70420;SDS011;57848;51.938;15.520;2023-04-24T09:41:31;4.30;;;1.10;;
70420;SDS011;57848;51.938;15.520;2023-04-24T09:44:01;7.93;;;1.70;;
70420;SDS011;57848;51.938;15.520;2023-04-24T09:46:44;4.88;;;1.30;;
70420;SDS011;57848;51.938;15.520;2023-04-24T09:49:14;5.40;;;1.50;;
70420;SDS011;57848;51.938;15.520;2023-04-24T09:51:43;5.33;;;0.83;;
70420;SDS011;57848;51.938;15.520;2023-04-24T09:54:15;4.82;;;0.88;;
70420;SDS011;57848;51.938;15.520;2023-04-24T09:56:45;4.70;;;1.00;;
70420;SDS011;57848;51.938;15.520;2023-04-24T09:59:15;4.53;;;1.00;;
70420;SDS011;57848;51.938;15.520;2023-04-24T10:01:42;5.15;;;1.35;;
70420;SDS011;57848;51.938;15.520;2023-04-24T10:04:16;5.72;;;1.00;;
70420;SDS011;57848;51.938;15.520;2023-04-24T10:06:45;4.35;;;1.10;;
70420;SDS011;57848;51.938;15.520;2023-04-24T10:09:12;4.63;;;0.83;;
70420;SDS011;57848;51.938;15.520;2023-04-24T10:11:42;5.82;;;1.42;;
70420;SDS011;57848;51.938;15.520;2023-04-24T10:14:21;4.05;;;1.10;;
70420;SDS011;57848;51.938;15.520;2023-04-24T10:16:48;4.38;;;1.00;;
70420;SDS011;57848;51.938;15.520;2023-04-24T10:19:15;5.00;;;1.17;;
70420;SDS011;57848;51.938;15.520;2023-04-24T10:21:42;5.20;;;1.00;;
70420;SDS011;57848;51.938;15.520;2023-04-24T10:24:12;7.55;;;1.20;;
70420;SDS011;57848;51.938;15.520;2023-04-24T10:26:41;5.05;;;1.13;;
70420;SDS011;57848;51.938;15.520;2023-04-24T10:29:07;4.78;;;0.90;;
70420;SDS011;57848;51.938;15.520;2023-04-24T10:31:35;3.97;;;1.20;;
70420;SDS011;57848;51.938;15.520;2023-04-24T10:34:02;4.97;;;1.10;;
70420;SDS011;57848;51.938;15.520;2023-04-24T10:36:29;5.05;;;0.85;;
70420;SDS011;57848;51.938;15.520;2023-04-24T10:38:57;4.45;;;1.42;;
70420;SDS011;57848;51.938;15.520;2023-04-24T10:41:25;4.30;;;0.90;;
70420;SDS011;57848;51.938;15.520;2023-04-24T10:44:03;6.10;;;1.47;;
70420;SDS011;57848;51.938;15.520;2023-04-24T10:46:29;7.47;;;1.40;;
70420;SDS011;57848;51.938;15.520;2023-04-24T10:48:56;4.07;;;1.30;;
70420;SDS011;57848;51.938;15.520;2023-04-24T10:51:23;5.28;;;1.00;;
70420;SDS011;57848;51.938;15.520;2023-04-24T10:53:52;4.00;;;1.08;;
70420;SDS011;57848;51.938;15.520;2023-04-24T10:56:17;4.35;;;1.08;;
70420;SDS011;57848;51.938;15.520;2023-04-24T10:58:43;4.87;;;1.30;;
70420;SDS011;57848;51.938;15.520;2023-04-24T11:01:23;5.70;;;1.20;;
70420;SDS011;57848;51.938;15.520;2023-04-24T11:04:00;3.72;;;1.13;;
70420;SDS011;57848;51.938;15.520;2023-04-24T11:06:28;5.10;;;1.10;;
70420;SDS011;57848;51.938;15.520;2023-04-24T11:08:59;4.55;;;1.10;;
70420;SDS011;57848;51.938;15.520;2023-04-24T11:11:29;4.78;;;1.30;;
70420;SDS011;57848;51.938;15.520;2023-04-24T11:16:27;5.60;;;1.57;;
70420;SDS011;57848;51.938;15.520;2023-04-24T11:21:43;8.18;;;1.48;;
70420;SDS011;57848;51.938;15.520;2023-04-24T11:27:14;5.03;;;1.50;;
70420;SDS011;57848;51.938;15.520;2023-04-24T11:29:48;6.88;;;1.38;;
70420;SDS011;57848;51.938;15.520;2023-04-24T11:32:35;6.70;;;2.10;;
70420;SDS011;57848;51.938;15.520;2023-04-24T11:35:06;4.95;;;1.58;;
70420;SDS011;57848;51.938;15.520;2023-04-24T11:37:46;5.95;;;1.60;;
70420;SDS011;57848;51.938;15.520;2023-04-24T11:40:15;6.60;;;1.80;;
70420;SDS011;57848;51.938;15.520;2023-04-24T11:42:46;5.75;;;1.42;;
70420;SDS011;57848;51.938;15.520;2023-04-24T11:45:22;6.60;;;1.40;;
70420;SDS011;57848;51.938;15.520;2023-04-24T11:47:49;7.05;;;1.60;;
70420;SDS011;57848;51.938;15.520;2023-04-24T11:50:15;5.73;;;1.40;;
70420;SDS011;57848;51.938;15.520;2023-04-24T11:52:43;4.75;;;1.20;;
70420;SDS011;57848;51.938;15.520;2023-04-24T11:57:38;5.78;;;1.15;;
70420;SDS011;57848;51.938;15.520;2023-04-24T12:00:04;5.57;;;1.40;;
70420;SDS011;57848;51.938;15.520;2023-04-24T12:02:37;6.47;;;1.20;;
70420;SDS011;57848;51.938;15.520;2023-04-24T12:05:02;8.47;;;1.67;;
70420;SDS011;57848;51.938;15.520;2023-04-24T12:07:28;5.47;;;1.90;;
70420;SDS011;57848;51.938;15.520;2023-04-24T12:09:57;5.13;;;1.50;;
70420;SDS011;57848;51.938;15.520;2023-04-24T12:12:25;5.00;;;1.38;;
70420;SDS011;57848;51.938;15.520;2023-04-24T12:14:55;6.00;;;1.60;;
70420;SDS011;57848;51.938;15.520;2023-04-24T12:17:26;5.82;;;1.58;;
70420;SDS011;57848;51.938;15.520;2023-04-24T12:20:02;5.93;;;2.00;;
70420;SDS011;57848;51.938;15.520;2023-04-24T12:22:48;5.70;;;1.88;;
70420;SDS011;57848;51.938;15.520;2023-04-24T12:25:18;5.47;;;1.95;;
70420;SDS011;57848;51.938;15.520;2023-04-24T12:27:51;6.77;;;2.03;;
70420;SDS011;57848;51.938;15.520;2023-04-24T12:30:18;5.90;;;2.00;;
70420;SDS011;57848;51.938;15.520;2023-04-24T12:32:45;6.23;;;2.43;;
70420;SDS011;57848;51.938;15.520;2023-04-24T12:35:13;6.20;;;2.20;;
70420;SDS011;57848;51.938;15.520;2023-04-24T12:37:43;7.38;;;2.70;;
70420;SDS011;57848;51.938;15.520;2023-04-24T12:40:10;11.77;;;3.00;;
70420;SDS011;57848;51.938;15.520;2023-04-24T12:42:47;9.88;;;2.03;;
70420;SDS011;57848;51.938;15.520;2023-04-24T12:45:14;6.43;;;1.70;;
70420;SDS011;57848;51.938;15.520;2023-04-24T12:47:40;7.13;;;1.45;;
70420;SDS011;57848;51.938;15.520;2023-04-24T12:50:10;7.23;;;1.50;;
70420;SDS011;57848;51.938;15.520;2023-04-24T12:52:37;5.70;;;1.60;;
70420;SDS011;57848;51.938;15.520;2023-04-24T12:55:04;5.93;;;1.60;;
70420;SDS011;57848;51.938;15.520;2023-04-24T12:57:32;5.72;;;1.20;;
70420;SDS011;57848;51.938;15.520;2023-04-24T12:59:59;5.40;;;1.45;;
70420;SDS011;57848;51.938;15.520;2023-04-24T13:02:27;6.23;;;1.83;;
70420;SDS011;57848;51.938;15.520;2023-04-24T13:04:55;4.80;;;1.30;;
70420;SDS011;57848;51.938;15.520;2023-04-24T13:07:20;5.60;;;1.63;;
70420;SDS011;57848;51.938;15.520;2023-04-24T13:09:47;4.28;;;1.23;;
70420;SDS011;57848;51.938;15.520;2023-04-24T13:12:13;5.55;;;1.90;;
70420;SDS011;57848;51.938;15.520;2023-04-24T13:14:39;5.47;;;1.70;;
70420;SDS011;57848;51.938;15.520;2023-04-24T13:17:05;7.38;;;1.70;;
70420;SDS011;57848;51.938;15.520;2023-04-24T13:19:35;5.50;;;1.40;;
70420;SDS011;57848;51.938;15.520;2023-04-24T13:22:04;6.82;;;1.40;;
70420;SDS011;57848;51.938;15.520;2023-04-24T13:24:30;5.70;;;1.38;;
70420;SDS011;57848;51.938;15.520;2023-04-24T13:26:56;6.40;;;1.50;;
70420;SDS011;57848;51.938;15.520;2023-04-24T13:29:22;6.47;;;1.50;;
70420;SDS011;57848;51.938;15.520;2023-04-24T13:31:49;5.55;;;1.90;;
70420;SDS011;57848;51.938;15.520;2023-04-24T13:34:16;4.90;;;1.70;;
70420;SDS011;57848;51.938;15.520;2023-04-24T13:36:42;4.63;;;1.50;;
70420;SDS011;57848;51.938;15.520;2023-04-24T13:39:07;6.27;;;1.60;;
70420;SDS011;57848;51.938;15.520;2023-04-24T13:41:33;4.50;;;1.25;;
70420;SDS011;57848;51.938;15.520;2023-04-24T13:43:59;4.87;;;1.40;;
70420;SDS011;57848;51.938;15.520;2023-04-24T13:46:25;7.33;;;2.40;;
70420;SDS011;57848;51.938;15.520;2023-04-24T13:48:50;8.67;;;2.43;;
70420;SDS011;57848;51.938;15.520;2023-04-24T13:51:16;7.50;;;3.00;;
70420;SDS011;57848;51.938;15.520;2023-04-24T13:53:41;7.80;;;3.10;;
70420;SDS011;57848;51.938;15.520;2023-04-24T13:56:06;7.07;;;2.90;;
70420;SDS011;57848;51.938;15.520;2023-04-24T13:58:33;8.43;;;3.00;;
70420;SDS011;57848;51.938;15.520;2023-04-24T14:00:58;8.00;;;2.60;;
70420;SDS011;57848;51.938;15.520;2023-04-24T14:03:24;7.93;;;2.43;;
70420;SDS011;57848;51.938;15.520;2023-04-24T14:05:49;7.33;;;2.00;;
70420;SDS011;57848;51.938;15.520;2023-04-24T14:08:15;6.68;;;2.47;;
70420;SDS011;57848;51.938;15.520;2023-04-24T14:10:40;8.30;;;2.37;;
70420;SDS011;57848;51.938;15.520;2023-04-24T14:13:05;6.73;;;2.60;;
70420;SDS011;57848;51.938;15.520;2023-04-24T14:15:31;6.80;;;2.70;;
70420;SDS011;57848;51.938;15.520;2023-04-24T14:17:57;6.50;;;2.97;;
70420;SDS011;57848;51.938;15.520;2023-04-24T14:20:22;7.17;;;2.80;;
70420;SDS011;57848;51.938;15.520;2023-04-24T14:22:48;8.18;;;2.92;;
70420;SDS011;57848;51.938;15.520;2023-04-24T14:25:13;7.90;;;2.80;;
70420;SDS011;57848;51.938;15.520;2023-04-24T14:27:38;8.50;;;2.90;;
70420;SDS011;57848;51.938;15.520;2023-04-24T14:30:05;7.57;;;2.60;;
70420;SDS011;57848;51.938;15.520;2023-04-24T14:32:31;6.72;;;2.60;;
70420;SDS011;57848;51.938;15.520;2023-04-24T14:34:56;6.23;;;2.33;;
70420;SDS011;57848;51.938;15.520;2023-04-24T14:37:22;6.70;;;2.70;;
70420;SDS011;57848;51.938;15.520;2023-04-24T14:39:47;6.00;;;2.13;;